createdAt,value
2023-01-23T00:00:46.238Z,26.75
2023-01-23T00:03:52.219Z,27.98
2023-01-23T00:06:57.920Z,29.05
2023-01-23T00:10:04.427Z,23.85
2023-01-23T00:13:09.718Z,24.50
2023-01-23T00:16:23.552Z,25.55
2023-01-23T00:19:28.216Z,25.43
2023-01-23T00:22:34.068Z,30.30
2023-01-23T00:25:39.529Z,30.68
2023-01-23T00:28:45.902Z,29.98
2023-01-23T00:31:52.464Z,32.25
2023-01-23T00:34:58.498Z,29.10
2023-01-23T00:38:04.782Z,24.05
2023-01-23T00:41:11.968Z,33.10
2023-01-23T00:44:10.659Z,25.68
2023-01-23T00:47:03.389Z,26.00
2023-01-23T00:50:08.537Z,26.30
2023-01-23T00:53:14.593Z,22.20
2023-01-23T00:56:20.583Z,23.45
2023-01-23T00:59:26.301Z,22.45
2023-01-23T01:02:25.273Z,28.73
2023-01-23T01:05:32.976Z,30.72
2023-01-23T01:08:40.517Z,21.97
2023-01-23T01:11:45.979Z,25.55
2023-01-23T01:14:50.990Z,22.80
2023-01-23T01:17:56.950Z,22.82
2023-01-23T01:21:02.931Z,28.60
2023-01-23T01:24:08.343Z,30.88
2023-01-23T01:27:13.791Z,23.85
2023-01-23T01:30:06.779Z,25.97
2023-01-23T01:33:04.650Z,21.93
2023-01-23T01:36:10.635Z,26.73
2023-01-23T01:39:10.535Z,23.15
2023-01-23T01:42:16.383Z,25.27
2023-01-23T01:45:22.896Z,21.65
2023-01-23T01:48:28.840Z,20.35
2023-01-23T01:51:45.304Z,19.75
2023-01-23T01:55:10.455Z,28.40
2023-01-23T01:58:15.630Z,24.37
2023-01-23T02:01:21.738Z,24.67
2023-01-23T02:04:27.529Z,21.93
2023-01-23T02:07:40.334Z,22.60
2023-01-23T02:10:47.542Z,28.27
2023-01-23T02:13:53.934Z,31.70
2023-01-23T02:17:01.359Z,26.70
2023-01-23T02:20:35.900Z,16.25
2023-01-23T02:23:55.440Z,26.82
2023-01-23T02:27:01.393Z,21.75
2023-01-23T02:30:07.291Z,19.10
2023-01-23T02:33:36.993Z,20.70
2023-01-23T02:36:45.836Z,17.32
2023-01-23T02:39:52.622Z,18.63
2023-01-23T02:42:59.457Z,29.20
2023-01-23T02:46:07.679Z,20.15
2023-01-23T02:49:13.628Z,17.62
2023-01-23T02:52:19.419Z,36.70
2023-01-23T02:55:26.619Z,28.57
2023-01-23T02:58:49.936Z,23.70
2023-01-23T03:01:58.360Z,21.17
2023-01-23T03:05:05.099Z,26.15
2023-01-23T03:08:10.922Z,28.02
2023-01-23T03:11:17.395Z,27.55
2023-01-23T03:14:28.978Z,20.40
2023-01-23T03:17:35.723Z,31.50
2023-01-23T03:20:41.931Z,26.02
2023-01-23T03:23:47.204Z,34.18
2023-01-23T03:26:58.233Z,26.02
2023-01-23T03:30:23.324Z,23.38
2023-01-23T03:33:23.704Z,21.85
2023-01-23T03:36:16.944Z,18.80
2023-01-23T03:39:33.914Z,18.07
2023-01-23T03:42:32.833Z,18.85
2023-01-23T03:45:39.312Z,18.55
2023-01-23T03:48:46.207Z,23.45
2023-01-23T03:51:51.725Z,22.50
2023-01-23T03:54:57.874Z,28.23
2023-01-23T03:58:04.985Z,20.37
2023-01-23T04:01:13.134Z,25.97
2023-01-23T04:04:19.317Z,22.02
2023-01-23T04:07:24.222Z,23.92
2023-01-23T04:10:30.716Z,30.17
2023-01-23T04:13:38.961Z,23.05
2023-01-23T04:16:45.149Z,28.40
2023-01-23T04:19:51.536Z,22.70
2023-01-23T04:22:57.633Z,20.52
2023-01-23T04:26:05.383Z,14.95
2023-01-23T04:29:04.276Z,15.13
2023-01-23T04:32:05.197Z,20.88
2023-01-23T04:35:12.898Z,26.00
2023-01-23T04:38:19.953Z,34.23
2023-01-23T04:41:34.837Z,31.77
2023-01-23T04:44:43.257Z,24.12
2023-01-23T04:48:05.900Z,29.85
2023-01-23T04:51:10.948Z,28.17
2023-01-23T04:54:17.298Z,34.83
2023-01-23T04:57:24.486Z,29.10
2023-01-23T05:00:35.234Z,28.75
2023-01-23T05:03:41.902Z,45.08
2023-01-23T05:06:42.838Z,46.02
2023-01-23T05:09:48.786Z,56.28
2023-01-23T05:12:55.804Z,45.55
2023-01-23T05:16:00.994Z,44.70
2023-01-23T05:19:02.993Z,65.22
2023-01-23T05:21:49.162Z,57.23
2023-01-23T05:24:42.751Z,43.08
2023-01-23T05:27:28.234Z,36.95
2023-01-23T05:30:21.723Z,54.33
2023-01-23T05:33:30.205Z,42.13
2023-01-23T05:36:36.410Z,47.30
2023-01-23T05:39:41.500Z,46.95
2023-01-23T05:42:46.485Z,41.63
2023-01-23T05:46:09.666Z,55.45
2023-01-23T05:49:20.392Z,49.58
2023-01-23T05:52:28.742Z,40.15
2023-01-23T05:55:34.494Z,49.60
2023-01-23T05:58:40.649Z,45.15
2023-01-23T06:01:51.076Z,43.98
2023-01-23T06:05:15.749Z,48.92
2023-01-23T06:08:27.863Z,48.50
2023-01-23T06:11:34.782Z,35.68
2023-01-23T06:14:33.860Z,52.80
2023-01-23T06:17:27.399Z,47.65
2023-01-23T06:20:33.110Z,41.28
2023-01-23T06:23:39.429Z,59.05
2023-01-23T06:26:46.158Z,54.05
2023-01-23T06:29:52.135Z,38.88
2023-01-23T06:32:58.578Z,49.88
2023-01-23T06:36:14.928Z,64.42
2023-01-23T06:39:20.587Z,48.73
2023-01-23T06:42:25.784Z,38.53
2023-01-23T06:45:31.729Z,41.63
2023-01-23T06:48:38.204Z,54.58
2023-01-23T06:51:44.192Z,40.85
2023-01-23T06:54:50.725Z,47.25
2023-01-23T06:57:56.257Z,32.33
2023-01-23T07:01:03.433Z,44.58
2023-01-23T07:04:28.107Z,44.13
2023-01-23T07:07:33.493Z,43.15
2023-01-23T07:10:40.627Z,46.15
2023-01-23T07:13:46.891Z,33.85
2023-01-23T07:16:55.039Z,40.38
2023-01-23T07:20:01.905Z,42.27
2023-01-23T07:23:09.688Z,47.13
2023-01-23T07:26:18.436Z,33.55
2023-01-23T07:29:23.590Z,38.23
2023-01-23T07:32:29.481Z,33.85
2023-01-23T07:35:35.740Z,32.08
2023-01-23T07:38:41.133Z,41.50
2023-01-23T07:41:48.743Z,42.17
2023-01-23T07:44:48.477Z,33.48
2023-01-23T07:47:53.573Z,34.70
2023-01-23T07:50:58.767Z,37.30
2023-01-23T07:54:04.025Z,39.25
2023-01-23T07:57:13.492Z,39.30
2023-01-23T08:00:22.397Z,47.75
2023-01-23T08:03:28.107Z,39.30
2023-01-23T08:06:34.211Z,33.65
2023-01-23T08:09:39.971Z,36.00
2023-01-23T08:12:45.911Z,38.05
2023-01-23T08:15:53.750Z,31.75
2023-01-23T08:18:58.812Z,29.32
2023-01-23T08:22:04.511Z,35.20
2023-01-23T08:25:09.467Z,33.95
2023-01-23T08:28:14.668Z,40.28
2023-01-23T08:31:22.266Z,42.30
2023-01-23T08:34:28.335Z,36.80
2023-01-23T08:37:35.356Z,39.25
2023-01-23T08:40:41.707Z,48.75
2023-01-23T08:43:48.285Z,50.70
2023-01-23T08:46:55.821Z,41.98
2023-01-23T08:50:02.141Z,43.80
2023-01-23T08:53:07.348Z,34.90
2023-01-23T08:56:16.900Z,48.92
2023-01-23T08:59:22.780Z,40.33
2023-01-23T09:02:28.596Z,35.80
2023-01-23T09:05:33.628Z,46.42
2023-01-23T09:08:38.946Z,37.38
2023-01-23T09:11:44.400Z,35.88
2023-01-23T09:14:49.875Z,41.10
2023-01-23T09:17:55.816Z,36.55
2023-01-23T09:21:00.981Z,32.35
2023-01-23T09:24:07.435Z,34.60
2023-01-23T09:27:12.827Z,39.65
2023-01-23T09:30:19.743Z,30.48
2023-01-23T09:33:27.773Z,46.48
2023-01-23T09:36:42.565Z,45.92
2023-01-23T09:39:40.342Z,29.40
2023-01-23T09:42:49.107Z,33.13
2023-01-23T09:45:54.313Z,26.37
2023-01-23T09:49:09.334Z,45.83
2023-01-23T09:52:22.328Z,34.25
2023-01-23T09:55:42.132Z,27.00
2023-01-23T09:58:53.947Z,25.05
2023-01-23T10:01:59.941Z,32.10
2023-01-23T10:05:09.495Z,34.55
2023-01-23T10:08:49.603Z,39.83
2023-01-23T10:12:09.774Z,32.30
2023-01-23T10:15:34.418Z,44.13
2023-01-23T10:19:18.350Z,25.57
2023-01-23T10:22:47.418Z,33.02
2023-01-23T10:25:53.702Z,32.15
2023-01-23T10:28:59.411Z,24.55
2023-01-23T10:32:06.507Z,33.45
2023-01-23T10:35:22.009Z,27.73
2023-01-23T10:38:58.968Z,30.80
2023-01-23T10:42:04.758Z,24.00
2023-01-23T10:45:10.611Z,26.82
2023-01-23T10:48:16.743Z,19.85
2023-01-23T10:51:45.080Z,22.50
2023-01-23T10:55:00.371Z,27.35
2023-01-23T10:58:09.863Z,25.65
2023-01-23T11:01:18.354Z,21.95
2023-01-23T11:04:35.674Z,15.85
2023-01-23T11:07:42.723Z,28.55
2023-01-23T11:10:48.310Z,21.65
2023-01-23T11:13:55.333Z,19.48
2023-01-23T11:17:00.817Z,26.37
2023-01-23T11:20:08.313Z,25.05
2023-01-23T11:23:31.591Z,21.27
2023-01-23T11:26:48.211Z,20.45
2023-01-23T16:10:52.920Z,22.67
2023-01-23T16:13:58.517Z,24.60
2023-01-23T16:17:16.386Z,22.27
2023-01-23T16:20:13.265Z,24.43
2023-01-23T16:23:46.658Z,22.50
2023-01-23T16:26:42.757Z,35.20
2023-01-23T16:29:51.312Z,20.62
2023-01-23T16:32:57.977Z,19.32
2023-01-23T16:36:04.149Z,18.77
2023-01-23T16:39:09.118Z,22.80
2023-01-23T16:42:15.431Z,18.57
2023-01-23T16:45:38.546Z,24.47
2023-01-23T16:48:45.458Z,22.37
2023-01-23T16:51:51.679Z,18.20
2023-01-23T16:54:59.082Z,17.52
2023-01-23T16:58:06.642Z,22.60
2023-01-23T17:01:24.169Z,20.97
2023-01-23T17:04:32.496Z,13.98
2023-01-23T17:07:38.280Z,19.05
2023-01-23T17:10:46.648Z,17.92
2023-01-23T17:13:51.092Z,23.67
2023-01-23T17:16:56.898Z,22.90
2023-01-23T17:20:02.616Z,20.17
2023-01-23T17:23:08.297Z,18.87
2023-01-23T17:26:14.732Z,13.58
2023-01-23T17:29:20.408Z,18.98
2023-01-23T17:32:34.480Z,17.70
2023-01-23T17:35:51.429Z,16.40
2023-01-23T17:38:58.419Z,26.42
2023-01-23T17:42:04.414Z,19.05
2023-01-23T17:45:10.155Z,19.30
2023-01-23T17:48:15.759Z,21.90
2023-01-23T17:51:23.759Z,21.12
2023-01-23T17:54:34.744Z,21.23
2023-01-23T17:57:41.216Z,23.45
2023-01-23T18:00:46.818Z,17.90
2023-01-23T18:03:51.911Z,15.88
2023-01-23T18:06:59.055Z,21.25
2023-01-23T18:10:04.763Z,16.50
2023-01-23T18:13:55.927Z,16.20
2023-01-23T18:17:02.465Z,18.32
2023-01-23T18:20:08.658Z,23.07
2023-01-23T18:23:07.368Z,15.68
2023-01-23T18:25:53.196Z,14.05
2023-01-23T18:29:18.502Z,20.60
2023-01-23T18:32:26.311Z,21.12
2023-01-23T18:36:05.664Z,21.82
2023-01-23T18:39:27.095Z,17.02
2023-01-23T18:42:46.464Z,17.17
2023-01-23T18:45:51.716Z,27.67
2023-01-23T18:48:58.519Z,20.85
2023-01-23T18:52:29.493Z,16.05
2023-01-23T18:56:04.692Z,18.62
2023-01-23T18:59:32.558Z,20.23
2023-01-23T19:02:49.929Z,22.10
2023-01-23T19:05:56.994Z,15.55
2023-01-23T19:09:03.812Z,21.85
2023-01-23T19:12:25.744Z,18.57
2023-01-23T19:15:57.326Z,19.95
2023-01-23T19:19:23.630Z,24.90
2023-01-23T19:22:28.115Z,23.38
2023-01-23T19:25:33.216Z,25.05
2023-01-23T19:28:40.895Z,21.12
2023-01-23T19:32:03.710Z,21.52
2023-01-23T19:34:50.655Z,22.00
2023-01-23T19:37:57.391Z,19.42
2023-01-23T19:41:03.978Z,19.45
2023-01-23T19:44:10.623Z,29.95
2023-01-23T19:47:16.340Z,20.25
2023-01-23T19:50:25.914Z,19.00
2023-01-23T19:53:32.384Z,29.00
2023-01-23T19:56:38.195Z,28.77
2023-01-23T19:59:43.743Z,23.62
2023-01-23T20:02:49.624Z,23.57
2023-01-23T20:05:55.756Z,30.32
2023-01-23T20:09:01.805Z,27.17
2023-01-23T20:12:07.494Z,24.75
2023-01-23T20:15:13.691Z,28.85
2023-01-23T20:18:22.023Z,26.23
2023-01-23T20:21:27.930Z,34.43
2023-01-23T20:24:34.505Z,31.95
2023-01-23T20:27:41.635Z,28.73
2023-01-23T20:30:47.141Z,27.87
2023-01-23T20:33:52.660Z,31.05
2023-01-23T20:36:58.135Z,25.37
2023-01-23T20:40:09.374Z,28.05
2023-01-23T20:43:17.351Z,28.50
2023-01-23T20:46:26.134Z,26.30
2023-01-23T20:49:25.130Z,29.80
2023-01-23T20:52:48.580Z,33.50
2023-01-23T20:55:55.799Z,29.23
2023-01-23T20:59:20.694Z,32.63
2023-01-23T21:02:32.597Z,33.92
2023-01-23T21:05:37.878Z,26.42
2023-01-23T21:08:43.840Z,27.02
2023-01-23T21:11:49.613Z,25.60
2023-01-23T21:14:55.767Z,25.23
2023-01-23T21:18:01.199Z,25.32
2023-01-23T21:21:08.049Z,37.28
2023-01-23T21:24:13.536Z,26.80
2023-01-23T21:27:23.453Z,23.92
2023-01-23T21:30:28.140Z,29.33
2023-01-23T21:33:34.205Z,26.40
2023-01-23T21:36:39.810Z,30.20
2023-01-23T21:39:45.587Z,27.65
2023-01-23T21:42:51.941Z,35.73
2023-01-23T21:45:58.476Z,26.73
2023-01-23T21:49:03.973Z,26.27
2023-01-23T21:52:09.282Z,25.37
2023-01-23T21:55:14.926Z,30.97
2023-01-23T21:58:20.440Z,27.02
2023-01-23T22:01:42.807Z,28.45
2023-01-23T22:04:49.259Z,32.33
2023-01-23T22:07:55.489Z,29.82
2023-01-23T22:11:01.466Z,29.05
2023-01-23T22:14:08.437Z,23.67
2023-01-23T22:17:14.881Z,25.88
2023-01-23T22:20:20.802Z,23.55
2023-01-23T22:23:27.272Z,26.45
2023-01-23T22:26:33.845Z,36.10
2023-01-23T22:29:39.082Z,30.68
2023-01-23T22:32:47.543Z,25.85
2023-01-23T22:35:56.504Z,25.23
2023-01-23T22:39:06.877Z,23.07
2023-01-23T22:42:13.053Z,33.55
2023-01-23T22:45:18.678Z,31.50
2023-01-23T22:48:24.044Z,30.75
2023-01-23T22:51:38.590Z,24.10
2023-01-23T22:54:44.371Z,27.15
2023-01-23T22:57:49.868Z,29.45
2023-01-23T23:00:59.164Z,28.47
2023-01-23T23:04:04.770Z,30.10
2023-01-23T23:07:11.288Z,22.90
2023-01-23T23:10:19.774Z,28.50
2023-01-23T23:13:25.430Z,31.25
2023-01-23T23:16:36.073Z,33.50
2023-01-23T23:22:48.217Z,25.23
2023-01-23T23:25:53.415Z,24.70
2023-01-23T23:29:00.843Z,23.45
2023-01-23T23:32:05.961Z,24.02
2023-01-23T23:35:11.972Z,26.55
2023-01-23T23:38:17.947Z,22.40
2023-01-23T23:41:28.226Z,28.27
2023-01-23T23:44:33.597Z,28.52
2023-01-23T23:47:39.554Z,26.65
2023-01-23T23:50:47.054Z,24.27
2023-01-23T23:53:53.163Z,23.67
2023-01-23T23:56:58.003Z,24.87
